Time;durP1;ratioP1;P1;durP2;ratioP2;P2;SDS_P1;SDS_P2;PMS_P1;PMS_P2;Temp;Humidity;BMP_temperature;BMP_pressure;BME280_temperature;BME280_humidity;BME280_pressure;Samples;Min_cycle;Max_cycle;Signal;HPM_P1;HPM_P2
2023/06/19 00:00:15;;;;;;;9.25;6.70;;;20.00;99.90;;;;;;5043409;28;20425;-60
2023/06/19 00:02:41;;;;;;;8.98;5.72;;;20.00;99.90;;;;;;5039797;28;20016;-62
2023/06/19 00:05:07;;;;;;;8.65;5.97;;;20.00;99.90;;;;;;5042099;28;20021;-61
2023/06/19 00:07:36;;;;;;;10.05;6.88;;;20.00;99.90;;;;;;5038082;28;20096;-62
2023/06/19 00:10:02;;;;;;;9.57;6.22;;;20.00;99.90;;;;;;5041308;28;20348;-62
2023/06/19 00:12:27;;;;;;;9.55;6.93;;;20.00;99.90;;;;;;5041429;28;20025;-60
2023/06/19 00:14:53;;;;;;;7.88;5.95;;;20.00;99.90;;;;;;5038652;28;20026;-61
2023/06/19 00:17:18;;;;;;;11.10;6.47;;;20.00;99.90;;;;;;5042886;28;20030;-62
2023/06/19 00:19:44;;;;;;;9.60;6.38;;;20.00;99.90;;;;;;5042124;28;20043;-62
2023/06/19 00:22:10;;;;;;;8.43;6.22;;;19.90;99.90;;;;;;5040994;28;20043;-63
2023/06/19 00:24:35;;;;;;;12.05;6.32;;;19.90;99.90;;;;;;5041422;28;20025;-62
2023/06/19 00:27:02;;;;;;;8.60;6.18;;;19.90;99.90;;;;;;5041563;28;20037;-62
2023/06/19 00:29:31;;;;;;;10.30;6.47;;;19.90;99.90;;;;;;5040785;28;20136;-62
2023/06/19 00:31:57;;;;;;;8.40;6.03;;;19.90;99.90;;;;;;5038352;28;20112;-62
2023/06/19 00:34:25;;;;;;;8.45;6.22;;;19.90;99.90;;;;;;5035927;28;20105;-62
2023/06/19 00:36:56;;;;;;;11.05;6.45;;;19.80;99.90;;;;;;5038564;28;20104;-62
2023/06/19 00:39:22;;;;;;;8.90;6.93;;;19.80;99.90;;;;;;5039860;28;20041;-62
2023/06/19 00:41:48;;;;;;;10.05;6.75;;;19.90;99.90;;;;;;5042885;28;20565;-62
2023/06/19 00:44:13;;;;;;;10.05;6.72;;;19.80;99.90;;;;;;5039614;28;20025;-62
2023/06/19 00:46:41;;;;;;;11.30;7.30;;;19.80;99.90;;;;;;5043554;28;20622;-62
2023/06/19 00:49:08;;;;;;;11.60;7.13;;;19.80;99.90;;;;;;5039865;28;20044;-63
2023/06/19 00:51:33;;;;;;;10.07;7.35;;;19.80;99.90;;;;;;5044295;28;20065;-62
2023/06/19 00:53:59;;;;;;;10.32;7.60;;;19.80;99.90;;;;;;5038859;28;20056;-61
2023/06/19 00:56:25;;;;;;;12.52;7.15;;;19.80;99.90;;;;;;5034471;28;20096;-61
2023/06/19 00:58:53;;;;;;;9.20;6.70;;;19.90;99.90;;;;;;5036363;28;20503;-62
2023/06/19 01:01:20;;;;;;;9.30;7.32;;;19.90;99.90;;;;;;5040253;28;20052;-62
2023/06/19 01:03:46;;;;;;;10.63;7.63;;;19.90;99.90;;;;;;5035879;28;20403;-62
2023/06/19 01:06:21;;;;;;;11.68;6.85;;;20.00;99.90;;;;;;5040917;28;20045;-61
2023/06/19 01:09:02;;;;;;;13.55;8.02;;;20.00;99.90;;;;;;5038010;28;20044;-61
2023/06/19 01:11:43;;;;;;;16.50;7.70;;;20.10;99.90;;;;;;5040164;28;20530;-61
2023/06/19 01:14:14;;;;;;;9.65;7.57;;;20.10;99.90;;;;;;5041131;28;20639;-60
2023/06/19 01:16:40;;;;;;;13.13;7.90;;;20.10;99.90;;;;;;5040433;28;20048;-61
2023/06/19 01:19:10;;;;;;;10.77;7.68;;;20.10;99.90;;;;;;5037841;28;20414;-60
2023/06/19 01:21:36;;;;;;;8.77;7.53;;;20.10;99.90;;;;;;5040065;28;20021;-61
2023/06/19 01:24:02;;;;;;;11.05;8.25;;;20.10;99.90;;;;;;5041881;28;20037;-61
2023/06/19 01:26:27;;;;;;;11.82;7.68;;;20.00;99.90;;;;;;5041945;28;20410;-59
2023/06/19 01:28:54;;;;;;;13.15;7.25;;;19.90;99.90;;;;;;5036715;28;20079;-60
2023/06/19 01:31:49;;;;;;;12.13;8.90;;;19.90;99.90;;;;;;5039400;28;20044;-61
2023/06/19 01:34:17;;;;;;;9.73;7.75;;;19.80;99.90;;;;;;5037523;28;20034;-61
2023/06/19 01:36:43;;;;;;;10.57;8.35;;;19.80;99.90;;;;;;5035248;28;20029;-60
2023/06/19 01:39:09;;;;;;;11.40;8.70;;;19.80;99.90;;;;;;5041162;28;20022;-61
2023/06/19 01:41:36;;;;;;;13.82;8.40;;;19.80;99.90;;;;;;5046142;28;20029;-61
2023/06/19 01:44:02;;;;;;;10.60;7.65;;;19.80;99.90;;;;;;5040863;28;20045;-60
2023/06/19 01:46:28;;;;;;;18.80;8.57;;;19.80;99.90;;;;;;5042717;28;20040;-61
2023/06/19 01:48:53;;;;;;;12.40;7.80;;;19.80;99.90;;;;;;5044657;28;20516;-61
2023/06/19 01:51:19;;;;;;;12.10;8.88;;;19.80;99.90;;;;;;5043634;28;20029;-61
2023/06/19 01:53:45;;;;;;;11.23;8.73;;;19.80;99.90;;;;;;5043046;28;20052;-60
2023/06/19 01:56:11;;;;;;;16.30;9.43;;;19.90;99.90;;;;;;5042205;28;20083;-61
2023/06/19 01:58:36;;;;;;;17.83;7.78;;;19.80;99.90;;;;;;5041208;28;20057;-60
2023/06/19 02:01:02;;;;;;;15.80;8.93;;;19.80;99.90;;;;;;5044826;28;20037;-61
2023/06/19 02:03:27;;;;;;;12.18;8.52;;;19.80;99.90;;;;;;5040034;28;20028;-61
2023/06/19 02:05:53;;;;;;;14.25;8.85;;;19.80;99.90;;;;;;5043043;28;20591;-61
2023/06/19 02:08:18;;;;;;;14.48;8.20;;;19.80;99.90;;;;;;5044823;28;20397;-61
2023/06/19 02:10:44;;;;;;;14.52;8.32;;;19.80;99.90;;;;;;5039007;28;20499;-61
2023/06/19 02:13:09;;;;;;;12.13;7.90;;;19.80;99.90;;;;;;5039347;28;20057;-61
2023/06/19 02:15:35;;;;;;;13.82;9.27;;;19.90;99.90;;;;;;5046015;28;20586;-62
2023/06/19 02:18:00;;;;;;;11.68;8.48;;;19.90;99.90;;;;;;5044857;28;20045;-61
2023/06/19 02:20:26;;;;;;;15.80;9.23;;;19.90;99.90;;;;;;5037700;28;20107;-61
2023/06/19 02:22:52;;;;;;;10.30;7.85;;;19.90;99.90;;;;;;5039856;28;20035;-62
2023/06/19 02:25:18;;;;;;;14.73;8.75;;;19.90;99.90;;;;;;5045505;28;20510;-62
2023/06/19 02:27:43;;;;;;;13.23;9.10;;;19.80;99.90;;;;;;5043279;28;20052;-61
2023/06/19 02:30:10;;;;;;;12.75;8.80;;;19.80;99.90;;;;;;5041821;28;20033;-61
2023/06/19 02:32:35;;;;;;;12.10;8.38;;;19.80;99.90;;;;;;5039167;28;20510;-61
2023/06/19 02:35:01;;;;;;;11.02;8.13;;;19.90;99.90;;;;;;5039847;28;20036;-62
2023/06/19 02:37:26;;;;;;;13.30;8.63;;;19.90;99.90;;;;;;5043057;28;20527;-61
2023/06/19 02:39:52;;;;;;;11.57;9.10;;;19.90;99.90;;;;;;5045489;28;20049;-61
2023/06/19 02:42:17;;;;;;;14.88;9.13;;;19.90;99.90;;;;;;5043234;28;20112;-60
2023/06/19 02:44:43;;;;;;;13.52;8.48;;;19.90;99.90;;;;;;5036819;28;20054;-61
2023/06/19 02:47:09;;;;;;;11.93;8.65;;;19.90;99.90;;;;;;5037270;28;21510;-62
2023/06/19 02:49:34;;;;;;;12.95;8.70;;;19.90;99.90;;;;;;5040444;28;20053;-61
2023/06/19 02:52:00;;;;;;;13.10;9.30;;;19.80;99.90;;;;;;5040464;28;20591;-61
2023/06/19 02:54:25;;;;;;;15.65;9.23;;;19.90;99.90;;;;;;5036554;28;20025;-61
2023/06/19 02:56:51;;;;;;;12.52;8.73;;;19.80;99.90;;;;;;5036269;28;20568;-60
2023/06/19 02:59:17;;;;;;;12.07;8.27;;;19.80;99.90;;;;;;5043256;28;20486;-61
2023/06/19 03:01:42;;;;;;;11.48;8.32;;;19.80;99.90;;;;;;5035296;28;20508;-61
2023/06/19 03:04:08;;;;;;;13.02;9.38;;;19.90;99.90;;;;;;5040119;28;20087;-62
2023/06/19 03:06:39;;;;;;;11.48;8.00;;;19.80;99.90;;;;;;5039492;28;20033;-61
2023/06/19 03:09:13;;;;;;;10.85;8.13;;;19.80;99.90;;;;;;5041595;28;20133;-61
2023/06/19 03:11:39;;;;;;;;;;;19.80;99.90;;;;;;5042001;28;20026;-61
2023/06/19 03:14:07;;;;;;;12.48;8.15;;;19.70;99.90;;;;;;5042107;28;19909;-61
2023/06/19 03:16:36;;;;;;;13.27;8.90;;;19.70;99.90;;;;;;5038146;28;20018;-61
2023/06/19 03:19:01;;;;;;;12.88;8.27;;;19.60;99.90;;;;;;5047583;28;20029;-61
2023/06/19 03:21:27;;;;;;;12.95;8.13;;;19.50;99.90;;;;;;5042686;28;20438;-61
2023/06/19 03:23:53;;;;;;;13.25;9.07;;;19.50;99.90;;;;;;5047209;28;20484;-61
2023/06/19 03:26:19;;;;;;;13.38;8.43;;;19.40;99.90;;;;;;5038015;28;20116;-60
2023/06/19 03:28:47;;;;;;;13.20;8.63;;;19.30;99.90;;;;;;5045738;28;20090;-61
2023/06/19 03:31:13;;;;;;;14.70;9.10;;;19.30;99.90;;;;;;5035530;28;20049;-61
2023/06/19 03:33:38;;;;;;;15.38;9.13;;;19.30;99.90;;;;;;5042549;28;20057;-59
2023/06/19 03:36:04;;;;;;;13.60;9.13;;;19.30;99.90;;;;;;5034668;28;20084;-61
2023/06/19 03:38:29;;;;;;;12.15;8.82;;;19.10;99.90;;;;;;5043652;28;20017;-60
2023/06/19 03:40:55;;;;;;;13.73;9.00;;;19.10;99.90;;;;;;5005275;28;1035203;-58
2023/06/19 03:43:20;;;;;;;17.25;10.40;;;19.10;99.90;;;;;;5040157;28;20037;-60
2023/06/19 03:45:46;;;;;;;15.35;9.60;;;19.00;99.90;;;;;;5041387;28;20032;-60
2023/06/19 03:48:12;;;;;;;13.73;9.60;;;19.00;99.90;;;;;;5037235;28;20032;-61
2023/06/19 03:50:37;;;;;;;11.98;8.23;;;19.10;99.90;;;;;;5039246;28;20160;-61
2023/06/19 03:53:03;;;;;;;12.35;9.77;;;19.10;99.90;;;;;;5037843;28;20030;-61
2023/06/19 03:55:28;;;;;;;12.77;8.48;;;19.10;99.90;;;;;;5036538;28;20094;-58
2023/06/19 03:57:54;;;;;;;11.02;8.27;;;19.20;99.90;;;;;;5042543;28;20459;-61
2023/06/19 04:00:20;;;;;;;9.95;7.45;;;19.60;99.90;;;;;;5032923;28;20419;-61
2023/06/19 04:02:48;;;;;;;11.70;7.38;;;19.60;99.90;;;;;;5038708;28;20498;-61
2023/06/19 04:05:17;;;;;;;10.00;6.65;;;19.80;99.90;;;;;;5035611;28;20533;-57
2023/06/19 04:07:43;;;;;;;15.27;6.35;;;19.90;99.90;;;;;;5037582;28;20037;-59
2023/06/19 04:10:11;;;;;;;10.30;5.90;;;19.90;99.90;;;;;;5038936;28;20413;-59
2023/06/19 04:12:37;;;;;;;8.30;5.43;;;20.00;99.90;;;;;;5040650;28;20060;-59
2023/06/19 04:15:03;;;;;;;8.60;5.13;;;20.10;99.90;;;;;;5034070;28;20488;-60
2023/06/19 04:17:28;;;;;;;7.20;4.75;;;20.10;99.90;;;;;;5038222;28;20030;-61
2023/06/19 04:19:54;;;;;;;11.32;5.40;;;20.00;99.90;;;;;;5037998;28;20025;-59
2023/06/19 04:22:19;;;;;;;7.90;5.32;;;20.10;99.90;;;;;;5032230;28;22732;-60
2023/06/19 04:24:45;;;;;;;7.75;5.25;;;20.10;99.90;;;;;;5032829;28;20035;-60
2023/06/19 04:27:10;;;;;;;8.52;4.65;;;20.10;99.90;;;;;;5038250;28;20431;-61
2023/06/19 04:29:36;;;;;;;13.75;5.07;;;20.10;99.90;;;;;;5035757;28;21122;-60
2023/06/19 04:32:03;;;;;;;8.05;4.75;;;20.10;99.90;;;;;;5033893;28;20571;-59
2023/06/19 04:34:28;;;;;;;7.70;4.43;;;20.20;99.90;;;;;;5034057;28;20059;-60
2023/06/19 04:36:58;;;;;;;10.40;5.18;;;20.20;99.90;;;;;;5038470;28;20143;-60
2023/06/19 04:39:24;;;;;;;7.93;4.93;;;20.20;99.90;;;;;;5037026;28;20082;-60
2023/06/19 04:41:49;;;;;;;5.43;3.80;;;20.20;99.90;;;;;;5035473;28;20502;-61
2023/06/19 04:44:15;;;;;;;8.00;4.57;;;20.20;99.90;;;;;;5033543;28;20074;-60
2023/06/19 04:46:41;;;;;;;7.60;4.90;;;20.20;99.90;;;;;;5035494;28;20032;-61
2023/06/19 04:49:08;;;;;;;6.43;4.05;;;20.30;99.90;;;;;;5034811;28;20216;-60
2023/06/19 04:51:34;;;;;;;5.85;4.00;;;20.30;99.90;;;;;;5030583;28;20061;-60
2023/06/19 04:54:00;;;;;;;7.65;4.43;;;20.40;99.90;;;;;;5034122;28;20400;-60
2023/06/19 04:56:26;;;;;;;5.05;3.80;;;20.30;99.90;;;;;;5035426;28;20037;-60
2023/06/19 04:58:51;;;;;;;5.68;3.88;;;20.30;99.90;;;;;;5041609;28;20044;-61
2023/06/19 05:01:17;;;;;;;8.18;3.90;;;20.30;99.90;;;;;;5039922;28;20108;-61
2023/06/19 05:03:45;;;;;;;5.93;3.45;;;20.40;99.90;;;;;;5034692;28;20040;-61
2023/06/19 05:06:11;;;;;;;7.25;4.20;;;20.40;99.90;;;;;;5038261;28;20068;-60
2023/06/19 05:08:37;;;;;;;5.93;3.95;;;20.40;99.90;;;;;;5034172;28;20064;-60
2023/06/19 05:11:03;;;;;;;6.13;3.40;;;20.40;99.90;;;;;;5045045;28;20041;-60
2023/06/19 05:13:28;;;;;;;5.65;3.40;;;20.40;99.90;;;;;;5041616;28;20119;-61
2023/06/19 05:15:55;;;;;;;7.22;3.53;;;20.50;99.90;;;;;;5042076;28;20021;-61
2023/06/19 05:18:21;;;;;;;4.15;3.40;;;20.50;99.90;;;;;;5036994;28;20027;-61
2023/06/19 05:20:47;;;;;;;5.82;3.00;;;20.60;99.90;;;;;;5045003;28;20029;-60
2023/06/19 05:23:12;;;;;;;5.75;3.33;;;20.60;99.90;;;;;;5045057;28;20557;-60
2023/06/19 05:25:38;;;;;;;3.47;2.58;;;20.70;99.90;;;;;;5039746;28;20033;-61
2023/06/19 05:28:04;;;;;;;9.50;3.50;;;20.70;99.90;;;;;;5036031;28;20041;-61
2023/06/19 05:30:29;;;;;;;6.75;2.67;;;20.60;99.90;;;;;;5036779;28;20078;-60
2023/06/19 05:32:55;;;;;;;5.15;3.00;;;20.60;99.90;;;;;;5036150;28;20475;-60
2023/06/19 05:35:21;;;;;;;3.30;2.30;;;20.70;99.90;;;;;;5038372;28;20431;-60
2023/06/19 05:37:47;;;;;;;8.65;2.63;;;20.70;99.90;;;;;;5035856;28;20108;-60
2023/06/19 05:40:12;;;;;;;3.78;2.42;;;20.70;99.90;;;;;;5036233;28;20638;-60
2023/06/19 05:42:39;;;;;;;4.82;2.80;;;20.80;99.90;;;;;;5037460;28;20499;-60
2023/06/19 05:45:05;;;;;;;5.57;2.85;;;20.80;99.90;;;;;;5036034;28;20061;-63
2023/06/19 05:47:31;;;;;;;6.20;2.58;;;20.90;99.90;;;;;;5033469;28;20060;-61
2023/06/19 05:49:57;;;;;;;3.58;2.30;;;20.90;99.90;;;;;;5033769;28;20037;-61
2023/06/19 05:52:23;;;;;;;6.28;2.70;;;20.90;99.90;;;;;;5030384;28;20028;-60
2023/06/19 05:54:49;;;;;;;3.35;2.50;;;21.00;99.90;;;;;;5034410;28;20103;-59
2023/06/19 05:57:16;;;;;;;6.38;2.78;;;21.00;99.90;;;;;;5035410;28;20510;-60
2023/06/19 05:59:41;;;;;;;4.30;3.08;;;21.00;99.90;;;;;;5038300;28;20021;-59
2023/06/19 06:02:07;;;;;;;2.53;2.30;;;21.10;99.90;;;;;;5031539;28;20029;-59
2023/06/19 06:04:34;;;;;;;8.00;3.25;;;21.10;99.90;;;;;;5033730;28;20033;-59
2023/06/19 06:07:00;;;;;;;4.35;2.63;;;21.20;99.90;;;;;;5029321;28;20116;-61
2023/06/19 06:09:26;;;;;;;4.80;2.50;;;21.30;99.90;;;;;;5035596;28;21884;-59
2023/06/19 06:11:52;;;;;;;5.38;2.58;;;21.30;99.90;;;;;;5027934;28;20264;-59
2023/06/19 06:14:18;;;;;;;10.80;2.78;;;21.40;99.90;;;;;;5034271;28;20384;-59
2023/06/19 06:16:43;;;;;;;3.30;2.00;;;21.60;99.90;;;;;;5037627;28;20040;-60
2023/06/19 06:19:09;;;;;;;10.18;2.58;;;21.80;99.90;;;;;;5032832;28;20037;-59
2023/06/19 06:21:34;;;;;;;6.18;2.85;;;21.80;99.90;;;;;;5033636;28;20677;-60
2023/06/19 06:24:00;;;;;;;2.90;2.42;;;21.90;99.90;;;;;;5036103;28;20030;-60
2023/06/19 06:26:27;;;;;;;7.85;2.70;;;22.00;99.90;;;;;;5035460;28;20444;-60
2023/06/19 06:28:53;;;;;;;4.38;2.42;;;22.10;99.90;;;;;;5035619;28;20506;-61
2023/06/19 06:31:19;;;;;;;8.18;2.60;;;22.20;99.90;;;;;;5034546;28;20036;-60
2023/06/19 06:33:44;;;;;;;8.45;2.38;;;22.20;99.90;;;;;;5035531;28;20168;-58
2023/06/19 06:36:10;;;;;;;3.92;2.00;;;22.30;99.90;;;;;;5032694;28;20028;-59
2023/06/19 06:38:35;;;;;;;3.20;2.15;;;22.30;99.90;;;;;;5036698;28;20040;-61
2023/06/19 06:41:01;;;;;;;3.72;2.83;;;22.30;99.90;;;;;;5033147;28;20025;-62
2023/06/19 06:43:26;;;;;;;4.13;2.55;;;22.30;99.90;;;;;;5040646;28;20080;-61
2023/06/19 06:45:52;;;;;;;3.55;2.38;;;22.30;99.90;;;;;;5040734;28;20364;-61
2023/06/19 06:48:18;;;;;;;3.72;2.40;;;22.40;99.90;;;;;;5036768;28;20021;-59
2023/06/19 06:50:43;;;;;;;6.40;2.60;;;22.40;99.90;;;;;;5038374;28;20486;-58
2023/06/19 06:53:09;;;;;;;2.65;2.15;;;22.40;99.90;;;;;;5036710;28;20505;-60
2023/06/19 06:55:34;;;;;;;3.00;2.20;;;22.50;99.90;;;;;;5032451;28;20259;-60
2023/06/19 06:58:00;;;;;;;2.70;1.90;;;22.60;99.90;;;;;;5036441;28;20021;-60
2023/06/19 07:00:26;;;;;;;3.90;2.58;;;22.60;99.90;;;;;;5036247;28;20044;-60
2023/06/19 07:02:51;;;;;;;3.67;3.05;;;22.60;99.90;;;;;;5032633;28;20112;-60
2023/06/19 07:05:17;;;;;;;3.28;2.05;;;22.70;99.90;;;;;;5040019;28;20090;-59
2023/06/19 07:07:42;;;;;;;4.57;1.80;;;22.70;99.90;;;;;;5039327;28;20030;-60
2023/06/19 07:10:08;;;;;;;2.40;1.58;;;22.70;99.90;;;;;;5040085;28;20303;-60
2023/06/19 07:12:34;;;;;;;5.57;1.70;;;22.80;99.90;;;;;;5042643;28;20490;-60
2023/06/19 07:14:59;;;;;;;1.75;1.30;;;22.90;99.90;;;;;;5040364;28;20041;-60
2023/06/19 07:17:25;;;;;;;4.03;1.40;;;23.00;99.90;;;;;;5038887;28;20104;-60
2023/06/19 07:19:50;;;;;;;1.83;1.20;;;23.10;99.90;;;;;;5037194;28;20049;-59
2023/06/19 07:22:16;;;;;;;1.48;1.30;;;23.20;99.90;;;;;;5037710;28;20060;-60
2023/06/19 07:24:41;;;;;;;3.72;1.10;;;23.30;99.90;;;;;;5037315;28;20044;-60
2023/06/19 07:27:07;;;;;;;1.02;0.80;;;23.40;99.90;;;;;;5033923;28;20034;-57
2023/06/19 07:29:33;;;;;;;1.30;0.90;;;23.50;99.90;;;;;;5033627;28;20029;-60
2023/06/19 07:32:00;;;;;;;1.05;0.88;;;23.50;99.90;;;;;;5033611;28;20037;-60
2023/06/19 07:34:26;;;;;;;1.77;0.90;;;23.50;99.90;;;;;;5038381;28;20104;-60
2023/06/19 07:36:51;;;;;;;1.55;0.95;;;23.50;99.90;;;;;;5038973;28;20147;-59
2023/06/19 07:39:17;;;;;;;8.82;1.00;;;23.40;99.90;;;;;;5035256;28;20429;-60
2023/06/19 07:41:42;;;;;;;2.15;0.90;;;23.40;99.90;;;;;;5038704;28;20597;-58
2023/06/19 07:44:08;;;;;;;2.00;0.90;;;23.40;99.90;;;;;;5041522;28;20036;-60
2023/06/19 07:46:34;;;;;;;1.55;0.80;;;23.40;99.90;;;;;;5035831;28;20036;-59
2023/06/19 07:48:59;;;;;;;1.60;0.88;;;23.10;99.90;;;;;;5035098;28;20127;-60
2023/06/19 07:51:25;;;;;;;1.38;1.00;;;23.20;99.90;;;;;;5034761;28;20099;-59
2023/06/19 07:53:50;;;;;;;3.90;0.98;;;23.20;99.90;;;;;;5039068;28;20064;-58
2023/06/19 07:56:16;;;;;;;3.75;1.20;;;23.30;99.90;;;;;;5034855;28;20422;-59
2023/06/19 07:58:41;;;;;;;1.30;1.02;;;23.30;99.90;;;;;;5041450;28;20493;-60
2023/06/19 08:01:07;;;;;;;1.65;1.20;;;23.30;99.90;;;;;;5041172;28;20021;-58
2023/06/19 08:03:32;;;;;;;2.53;1.15;;;23.30;99.90;;;;;;5038216;28;20024;-59
2023/06/19 08:05:58;;;;;;;5.22;1.20;;;23.20;99.90;;;;;;5036203;28;20037;-60
2023/06/19 08:08:23;;;;;;;1.42;1.10;;;23.40;99.90;;;;;;5043927;28;20111;-59
2023/06/19 08:10:49;;;;;;;2.65;1.20;;;23.40;99.90;;;;;;5036160;28;20124;-59
2023/06/19 08:13:14;;;;;;;6.15;1.40;;;23.30;99.90;;;;;;5040916;28;20057;-59
2023/06/19 08:15:40;;;;;;;2.72;1.45;;;23.20;99.90;;;;;;5041467;28;20036;-59
2023/06/19 08:18:06;;;;;;;4.43;1.20;;;23.20;99.90;;;;;;5033389;28;20142;-58
2023/06/19 08:20:31;;;;;;;1.70;1.23;;;23.30;99.90;;;;;;5036677;28;20044;-59
2023/06/19 08:22:57;;;;;;;5.50;1.45;;;23.30;99.90;;;;;;5039069;28;20116;-60
2023/06/19 08:25:22;;;;;;;7.75;1.70;;;23.40;99.90;;;;;;5037983;28;20079;-60
2023/06/19 08:27:48;;;;;;;3.58;1.67;;;23.50;99.90;;;;;;5037111;28;20391;-60
2023/06/19 08:30:14;;;;;;;2.65;1.83;;;23.50;99.90;;;;;;5037322;28;20021;-60
2023/06/19 08:32:39;;;;;;;2.42;1.65;;;23.50;99.90;;;;;;5039779;28;20029;-60
2023/06/19 08:35:06;;;;;;;5.35;1.95;;;23.40;99.90;;;;;;5033246;28;20029;-60
2023/06/19 08:37:31;;;;;;;3.17;1.65;;;23.50;99.90;;;;;;5046522;28;20028;-60
2023/06/19 08:39:57;;;;;;;4.35;1.55;;;23.50;99.90;;;;;;5034696;28;20029;-59
2023/06/19 08:42:23;;;;;;;10.88;1.80;;;23.70;99.90;;;;;;5036537;28;20029;-58
2023/06/19 08:44:49;;;;;;;2.90;1.58;;;23.70;99.90;;;;;;5034353;28;20122;-60
2023/06/19 08:47:14;;;;;;;2.22;1.63;;;23.60;99.90;;;;;;5037710;28;20017;-60
2023/06/19 08:49:40;;;;;;;4.63;1.55;;;23.50;99.90;;;;;;5038243;28;20030;-60
2023/06/19 08:52:07;;;;;;;5.63;1.70;;;23.50;99.90;;;;;;5041107;28;20429;-61
2023/06/19 08:54:33;;;;;;;2.53;1.80;;;23.60;99.90;;;;;;5035152;28;20010;-59
2023/06/19 08:57:02;;;;;;;2.40;1.70;;;23.70;99.90;;;;;;5040086;28;20024;-58
2023/06/19 08:59:31;;;;;;;2.30;1.80;;;23.60;99.90;;;;;;5035872;28;20040;-60
2023/06/19 09:01:57;;;;;;;5.45;1.90;;;23.70;99.90;;;;;;5037602;28;20402;-61
2023/06/19 09:04:28;;;;;;;4.43;1.98;;;23.80;99.90;;;;;;5036862;28;20029;-61
2023/06/19 09:06:59;;;;;;;4.18;2.20;;;24.00;99.90;;;;;;5037635;28;20083;-60
2023/06/19 09:09:25;;;;;;;7.43;4.25;;;24.00;99.90;;;;;;5035294;28;20021;-60
2023/06/19 09:12:06;;;;;;;2.55;1.92;;;24.10;99.90;;;;;;5036113;28;20025;-60
2023/06/19 09:14:39;;;;;;;3.30;2.00;;;24.20;99.90;;;;;;5034573;28;20033;-61
2023/06/19 09:17:07;;;;;;;3.60;2.05;;;24.40;99.90;;;;;;5036812;28;20025;-60
2023/06/19 09:19:34;;;;;;;9.23;3.00;;;24.40;99.90;;;;;;5038689;28;20029;-60
2023/06/19 09:22:09;;;;;;;5.30;2.45;;;24.20;99.90;;;;;;5035986;28;20021;-59
2023/06/19 09:24:41;;;;;;;4.28;2.55;;;24.20;99.90;;;;;;5033186;28;20029;-59
2023/06/19 09:27:13;;;;;;;3.67;2.45;;;24.30;99.90;;;;;;5041133;28;20029;-58
2023/06/19 09:29:40;;;;;;;6.38;2.47;;;24.50;99.90;;;;;;5035928;28;20021;-59
2023/06/19 09:32:26;;;;;;;7.75;2.45;;;24.60;99.90;;;;;;5034083;28;20175;-57
2023/06/19 09:34:54;;;;;;;4.82;2.35;;;24.60;99.90;;;;;;5035944;28;20025;-59
2023/06/19 09:37:24;;;;;;;4.90;2.33;;;24.80;99.90;;;;;;5036932;28;20037;-60
2023/06/19 09:39:54;;;;;;;6.57;2.72;;;24.60;99.90;;;;;;5040739;28;20021;-59
2023/06/19 09:42:33;;;;;;;5.40;2.50;;;24.50;99.90;;;;;;5036753;28;20021;-61
2023/06/19 09:45:04;;;;;;;3.97;2.38;;;24.60;99.90;;;;;;5036797;28;20028;-60
2023/06/19 09:47:34;;;;;;;7.43;2.90;;;24.60;99.90;;;;;;5039131;28;20505;-60
2023/06/19 09:50:01;;;;;;;3.38;2.33;;;24.60;99.90;;;;;;5032467;28;20017;-60
2023/06/19 09:52:27;;;;;;;3.85;2.50;;;24.70;99.90;;;;;;5034800;28;20033;-59
2023/06/19 09:54:54;;;;;;;4.70;3.03;;;24.70;99.90;;;;;;5043238;28;20132;-60
2023/06/19 09:57:20;;;;;;;6.47;3.20;;;25.00;99.90;;;;;;5038811;28;20369;-61
2023/06/19 09:59:49;;;;;;;6.30;2.70;;;25.10;99.90;;;;;;5031954;28;20924;-61
2023/06/19 10:02:15;;;;;;;8.73;3.05;;;25.10;99.90;;;;;;5039512;28;20040;-60
2023/06/19 10:04:45;;;;;;;6.25;2.85;;;25.20;99.90;;;;;;5036769;28;20442;-60
2023/06/19 10:07:21;;;;;;;5.95;3.00;;;25.20;99.90;;;;;;5027875;28;21487;-61
2023/06/19 10:10:07;;;;;;;4.95;2.97;;;25.30;99.90;;;;;;5033144;28;20531;-61
2023/06/19 10:12:41;;;;;;;3.83;2.83;;;25.50;99.90;;;;;;5040949;28;20035;-60
2023/06/19 10:15:39;;;;;;;6.63;3.35;;;25.50;99.90;;;;;;5041787;28;20479;-60
2023/06/19 10:18:05;;;;;;;5.32;3.13;;;25.80;99.90;;;;;;5034961;28;20072;-60
2023/06/19 10:20:32;;;;;;;4.72;3.03;;;26.00;99.90;;;;;;5047643;28;20040;-61
2023/06/19 10:23:02;;;;;;;5.20;3.28;;;25.90;99.90;;;;;;5042904;28;20013;-60
2023/06/19 10:25:31;;;;;;;6.40;3.00;;;25.90;99.90;;;;;;5043922;28;20415;-58
2023/06/19 10:27:57;;;;;;;6.78;3.42;;;26.10;99.90;;;;;;5039682;28;20025;-60
2023/06/19 10:30:22;;;;;;;14.77;3.63;;;26.20;99.90;;;;;;5041335;28;20063;-59
2023/06/19 10:32:48;;;;;;;4.65;3.17;;;26.40;99.90;;;;;;5039671;28;20491;-60
2023/06/19 10:35:16;;;;;;;6.18;4.00;;;26.50;99.90;;;;;;5038694;28;20068;-61
2023/06/19 10:37:41;;;;;;;4.45;3.10;;;26.70;99.90;;;;;;5038248;28;20021;-60
2023/06/19 10:40:09;;;;;;;11.13;3.67;;;27.10;99.90;;;;;;5040048;28;20398;-58
2023/06/19 10:42:36;;;;;;;6.75;3.45;;;27.40;99.90;;;;;;5035766;28;20036;-59
2023/06/19 10:45:05;;;;;;;5.57;3.25;;;27.20;99.90;;;;;;5034471;28;20072;-59
2023/06/19 10:47:32;;;;;;;7.18;3.38;;;27.50;99.90;;;;;;5039702;28;20517;-59
2023/06/19 10:49:58;;;;;;;5.97;3.42;;;27.70;99.90;;;;;;5034148;28;20030;-59
2023/06/19 10:52:24;;;;;;;7.53;3.67;;;27.80;99.90;;;;;;5045673;28;20056;-59
2023/06/19 10:54:56;;;;;;;5.60;3.97;;;27.60;99.90;;;;;;5037471;28;20022;-58
2023/06/19 10:57:29;;;;;;;4.82;3.45;;;27.60;99.10;;;;;;5048642;28;20239;-60
2023/06/19 10:59:54;;;;;;;8.27;3.70;;;27.60;99.80;;;;;;5034536;28;20026;-59
2023/06/19 11:02:21;;;;;;;5.50;3.42;;;27.80;99.20;;;;;;5040310;28;20502;-58
2023/06/19 11:04:47;;;;;;;7.50;3.55;;;27.70;97.60;;;;;;5037872;28;20426;-59
2023/06/19 11:07:13;;;;;;;5.00;3.22;;;27.70;99.40;;;;;;5042665;28;20040;-59
2023/06/19 11:09:38;;;;;;;5.80;3.90;;;27.90;98.00;;;;;;5039511;28;20742;-60
2023/06/19 11:12:07;;;;;;;5.63;3.53;;;28.00;97.10;;;;;;5043131;28;20114;-60
2023/06/19 11:14:39;;;;;;;6.90;3.85;;;28.00;98.00;;;;;;5041330;28;20025;-60
2023/06/19 11:17:05;;;;;;;8.73;3.55;;;28.00;97.90;;;;;;5036438;28;20024;-60
2023/06/19 11:19:33;;;;;;;6.10;3.65;;;28.00;96.10;;;;;;5045489;28;20021;-61
2023/06/19 11:22:00;;;;;;;5.95;2.80;;;28.00;98.00;;;;;;5041090;28;20026;-61
2023/06/19 11:24:26;;;;;;;4.97;3.63;;;28.10;94.80;;;;;;5044659;28;20084;-61
2023/06/19 11:26:52;;;;;;;10.90;3.97;;;27.90;95.40;;;;;;5042772;28;20068;-59
2023/06/19 11:29:23;;;;;;;6.15;3.58;;;27.90;96.60;;;;;;5044026;28;20518;-60
2023/06/19 11:31:49;;;;;;;5.47;3.88;;;28.10;95.50;;;;;;5035087;28;20032;-62
2023/06/19 11:34:16;;;;;;;6.18;3.25;;;28.20;93.40;;;;;;5036943;28;20022;-58
2023/06/19 11:36:43;;;;;;;7.70;3.90;;;28.30;93.30;;;;;;5038579;28;20101;-61
2023/06/19 11:39:13;;;;;;;7.03;3.30;;;28.50;91.40;;;;;;5039683;28;20025;-58
2023/06/19 11:41:39;;;;;;;8.23;3.65;;;28.40;91.00;;;;;;5042448;28;20111;-58
2023/06/19 11:44:06;;;;;;;4.93;3.58;;;28.50;91.40;;;;;;5039097;28;20029;-62
2023/06/19 11:46:33;;;;;;;6.57;4.22;;;28.60;90.70;;;;;;5036658;28;20436;-59
2023/06/19 11:49:14;;;;;;;7.97;3.85;;;28.40;90.90;;;;;;5039200;28;20104;-57
2023/06/19 11:51:40;;;;;;;4.60;3.45;;;28.40;91.10;;;;;;5034906;28;20032;-60
2023/06/19 11:54:11;;;;;;;7.32;4.35;;;28.60;92.40;;;;;;5042102;28;20104;-59
2023/06/19 11:56:38;;;;;;;7.85;3.28;;;28.50;90.40;;;;;;5038937;28;20289;-60
2023/06/19 11:59:04;;;;;;;6.25;3.67;;;28.70;90.00;;;;;;5040583;28;20022;-61
2023/06/19 12:01:34;;;;;;;6.55;4.00;;;28.60;90.00;;;;;;5043221;28;20340;-62
2023/06/19 12:04:01;;;;;;;7.88;4.07;;;28.70;88.80;;;;;;5034699;28;20112;-60
2023/06/19 12:06:27;;;;;;;6.35;3.47;;;28.90;87.20;;;;;;5038447;28;20053;-61
2023/06/19 12:08:53;;;;;;;8.43;4.03;;;28.80;89.80;;;;;;5037606;28;20664;-60
2023/06/19 12:11:18;;;;;;;6.30;3.47;;;28.90;88.40;;;;;;5038028;28;20084;-61
2023/06/19 12:13:44;;;;;;;6.40;3.33;;;29.00;87.10;;;;;;5038177;28;20454;-61
2023/06/19 12:16:10;;;;;;;4.70;2.33;;;28.90;87.90;;;;;;5036984;28;20075;-62
2023/06/19 12:18:36;;;;;;;8.32;3.50;;;29.00;87.40;;;;;;5034913;28;20570;-61
2023/06/19 12:21:02;;;;;;;5.97;3.47;;;29.30;86.70;;;;;;5039226;28;20116;-61
2023/06/19 12:23:28;;;;;;;7.22;3.70;;;29.60;87.60;;;;;;5033922;28;20049;-60
2023/06/19 12:25:54;;;;;;;6.60;3.05;;;29.90;86.80;;;;;;5033451;28;20044;-62
2023/06/19 12:28:19;;;;;;;8.70;3.67;;;29.70;85.10;;;;;;5035948;28;20084;-62
2023/06/19 12:30:45;;;;;;;4.18;3.20;;;29.90;86.10;;;;;;5044843;28;20494;-60
2023/06/19 12:33:11;;;;;;;7.25;3.47;;;30.00;86.40;;;;;;5036324;28;20530;-62
2023/06/19 12:35:41;;;;;;;6.53;3.22;;;30.00;83.70;;;;;;5040860;28;20208;-60
2023/06/19 12:38:07;;;;;;;6.22;2.78;;;30.00;83.40;;;;;;5032107;28;20108;-60
2023/06/19 12:40:33;;;;;;;12.38;3.70;;;29.60;85.80;;;;;;5040168;28;20120;-61